createdAt,value
2023-01-26T00:01:08.747Z,17.67
2023-01-26T00:03:35.399Z,18.40
2023-01-26T00:06:07.167Z,18.77
2023-01-26T00:08:41.577Z,19.47
2023-01-26T00:11:10.183Z,18.23
2023-01-26T00:13:37.728Z,20.23
2023-01-26T00:16:05.077Z,16.73
2023-01-26T00:18:31.848Z,19.20
2023-01-26T00:21:01.001Z,20.60
2023-01-26T00:23:29.901Z,18.40
2023-01-26T00:25:56.541Z,19.43
2023-01-26T00:28:23.196Z,21.83
2023-01-26T00:30:49.860Z,22.37
2023-01-26T00:33:16.562Z,24.13
2023-01-26T00:35:44.550Z,21.30
2023-01-26T00:38:12.584Z,20.50
2023-01-26T00:40:39.991Z,19.77
2023-01-26T00:43:07.206Z,22.80
2023-01-26T00:45:35.698Z,17.63
2023-01-26T00:48:02.426Z,19.33
2023-01-26T00:50:29.072Z,21.27
2023-01-26T00:52:55.686Z,21.60
2023-01-26T00:55:22.302Z,24.87
2023-01-26T00:57:49.871Z,19.43
2023-01-26T01:00:17.803Z,22.40
2023-01-26T01:02:44.877Z,22.47
2023-01-26T01:05:11.783Z,20.90
2023-01-26T01:07:38.416Z,22.93
2023-01-26T01:10:05.260Z,22.20
2023-01-26T01:12:31.848Z,21.10
2023-01-26T01:14:58.408Z,22.97
2023-01-26T01:17:25.179Z,23.57
2023-01-26T01:19:51.737Z,25.47
2023-01-26T01:22:18.686Z,22.73
2023-01-26T01:24:45.249Z,25.47
2023-01-26T01:27:11.790Z,25.03
2023-01-26T01:29:38.396Z,24.50
2023-01-26T01:32:05.080Z,22.93
2023-01-26T01:34:31.706Z,24.40
2023-01-26T01:36:58.254Z,24.73
2023-01-26T01:39:24.845Z,23.37
2023-01-26T01:41:51.424Z,25.13
2023-01-26T01:44:23.158Z,22.33
2023-01-26T01:47:00.637Z,24.70
2023-01-26T01:49:49.874Z,24.80
2023-01-26T01:52:20.975Z,20.10
2023-01-26T01:54:54.036Z,23.60
2023-01-26T01:57:28.508Z,23.17
2023-01-26T02:00:05.391Z,22.90
2023-01-26T02:02:32.185Z,27.10
2023-01-26T02:05:07.427Z,26.10
2023-01-26T02:07:34.036Z,24.57
2023-01-26T02:10:19.943Z,25.50
2023-01-26T02:12:55.384Z,25.43
2023-01-26T02:15:22.034Z,21.93
2023-01-26T02:17:51.622Z,26.83
2023-01-26T02:20:28.664Z,19.67
2023-01-26T02:23:14.669Z,24.10
2023-01-26T02:25:53.888Z,27.00
2023-01-26T02:28:27.679Z,23.43
2023-01-26T02:30:55.897Z,24.17
2023-01-26T02:33:27.938Z,21.03
2023-01-26T02:35:54.855Z,21.13
2023-01-26T02:38:24.413Z,26.30
2023-01-26T02:40:56.458Z,22.33
2023-01-26T02:43:26.233Z,27.07
2023-01-26T02:45:53.097Z,24.43
2023-01-26T02:48:40.014Z,21.87
2023-01-26T02:51:07.265Z,23.10
2023-01-26T02:53:33.903Z,22.93
2023-01-26T02:56:00.594Z,20.53
2023-01-26T02:58:27.372Z,21.93
2023-01-26T03:00:53.983Z,25.27
2023-01-26T03:03:24.718Z,24.63
2023-01-26T03:05:51.742Z,25.30
2023-01-26T03:08:18.596Z,27.50
2023-01-26T03:10:47.479Z,25.03
2023-01-26T03:13:14.227Z,24.10
2023-01-26T03:15:47.873Z,20.73
2023-01-26T03:18:35.286Z,21.70
2023-01-26T03:21:22.982Z,22.90
2023-01-26T03:24:08.273Z,24.30
2023-01-26T03:26:54.247Z,23.73
2023-01-26T03:29:22.163Z,26.93
2023-01-26T03:31:49.694Z,22.30
2023-01-26T03:34:16.324Z,26.17
2023-01-26T03:36:43.321Z,24.57
2023-01-26T03:39:09.916Z,22.70
2023-01-26T03:41:55.281Z,25.93
2023-01-26T03:44:40.444Z,23.57
2023-01-26T03:47:25.712Z,25.93
2023-01-26T03:50:11.332Z,22.83
2023-01-26T03:52:56.907Z,20.93
2023-01-26T03:55:42.171Z,22.37
2023-01-26T03:58:09.547Z,24.73
2023-01-26T04:00:36.195Z,20.73
2023-01-26T04:03:21.725Z,18.73
2023-01-26T04:06:16.098Z,14.13
2023-01-26T04:08:44.671Z,16.57
2023-01-26T04:11:11.292Z,18.73
2023-01-26T04:13:56.692Z,17.67
2023-01-26T04:16:42.126Z,18.17
2023-01-26T04:19:27.323Z,17.70
2023-01-26T04:21:53.865Z,17.73
2023-01-26T04:24:22.589Z,15.10
2023-01-26T04:26:49.292Z,18.90
2023-01-26T04:29:16.421Z,17.07
2023-01-26T04:31:43.764Z,16.30
2023-01-26T04:34:12.799Z,17.73
2023-01-26T04:36:39.733Z,16.40
2023-01-26T04:39:06.315Z,17.33
2023-01-26T04:41:33.033Z,18.10
2023-01-26T04:43:59.603Z,15.57
2023-01-26T04:46:26.372Z,14.03
2023-01-26T04:48:52.980Z,17.87
2023-01-26T04:51:21.736Z,16.37
2023-01-26T04:53:49.240Z,19.80
2023-01-26T04:56:30.693Z,17.80
2023-01-26T04:58:59.793Z,18.20
2023-01-26T05:01:26.931Z,17.10
2023-01-26T05:03:54.001Z,17.70
2023-01-26T05:06:20.904Z,18.13
2023-01-26T05:08:47.609Z,18.83
2023-01-26T05:11:14.247Z,20.13
2023-01-26T05:13:41.313Z,20.70
2023-01-26T05:16:08.562Z,18.40
2023-01-26T05:18:35.244Z,18.13
2023-01-26T05:21:01.814Z,18.57
2023-01-26T05:23:28.372Z,21.03
2023-01-26T05:25:54.914Z,18.77
2023-01-26T05:28:21.461Z,19.17
2023-01-26T05:30:48.231Z,17.73
2023-01-26T05:33:15.878Z,17.17
2023-01-26T05:35:43.127Z,18.60
2023-01-26T05:38:09.707Z,19.43
2023-01-26T05:40:36.378Z,20.43
2023-01-26T05:43:02.996Z,17.80
2023-01-26T05:45:29.624Z,16.13
2023-01-26T05:47:56.197Z,18.77
2023-01-26T05:50:22.760Z,18.83
2023-01-26T05:52:49.904Z,19.90
2023-01-26T05:55:16.563Z,19.97
2023-01-26T05:57:43.159Z,18.40
2023-01-26T06:00:11.445Z,18.83
2023-01-26T06:02:38.210Z,17.87
2023-01-26T06:05:05.297Z,16.50
2023-01-26T06:07:32.045Z,12.90
2023-01-26T06:09:58.626Z,16.07
2023-01-26T06:12:25.293Z,15.03
2023-01-26T06:14:51.871Z,15.60
2023-01-26T06:17:18.805Z,18.50
2023-01-26T06:19:45.618Z,17.47
2023-01-26T06:22:13.795Z,15.17
2023-01-26T06:24:40.391Z,14.80
2023-01-26T06:27:12.169Z,15.43
2023-01-26T06:29:38.751Z,16.20
2023-01-26T06:32:05.788Z,16.50
2023-01-26T06:34:33.599Z,16.07
2023-01-26T06:37:00.146Z,14.53
2023-01-26T06:39:26.782Z,16.47
2023-01-26T06:41:53.315Z,16.30
2023-01-26T06:44:19.871Z,15.17
2023-01-26T06:46:46.429Z,12.53
2023-01-26T06:49:13.527Z,16.40
2023-01-26T06:51:47.755Z,16.00
2023-01-26T06:54:15.337Z,14.50
2023-01-26T06:56:42.328Z,15.20
2023-01-26T06:59:10.720Z,15.50
2023-01-26T07:01:41.349Z,14.67
2023-01-26T07:04:08.398Z,15.10
2023-01-26T07:06:35.072Z,12.40
2023-01-26T07:09:01.869Z,15.63
2023-01-26T07:11:30.597Z,16.47
2023-01-26T07:13:57.164Z,14.97
2023-01-26T07:16:23.987Z,15.27
2023-01-26T07:18:50.735Z,15.17
2023-01-26T07:21:18.761Z,14.17
2023-01-26T07:23:46.187Z,15.43
2023-01-26T07:26:13.330Z,17.93
2023-01-26T07:28:40.370Z,13.47
2023-01-26T07:31:08.586Z,16.03
2023-01-26T07:33:35.864Z,14.53
2023-01-26T07:36:03.894Z,15.10
2023-01-26T07:38:30.724Z,11.50
2023-01-26T07:40:57.665Z,12.97
2023-01-26T07:43:24.482Z,11.30
2023-01-26T07:45:53.616Z,11.40
2023-01-26T07:48:22.504Z,12.27
2023-01-26T07:50:49.622Z,12.33
2023-01-26T07:53:19.412Z,14.00
2023-01-26T07:55:47.036Z,12.57
2023-01-26T07:58:13.764Z,12.37
2023-01-26T08:00:40.902Z,12.13
2023-01-26T08:03:07.547Z,10.60
2023-01-26T08:05:35.563Z,12.67
2023-01-26T08:08:02.550Z,14.00
2023-01-26T08:10:31.611Z,12.30
2023-01-26T08:13:01.269Z,11.80
2023-01-26T08:15:28.713Z,12.17
2023-01-26T08:17:55.837Z,10.93
2023-01-26T08:20:22.793Z,9.70
2023-01-26T08:22:49.478Z,10.90
2023-01-26T08:25:16.052Z,10.77
2023-01-26T08:27:42.703Z,11.63
2023-01-26T08:30:10.313Z,11.70
2023-01-26T08:32:37.774Z,11.17
2023-01-26T08:35:04.693Z,10.50
2023-01-26T08:37:31.255Z,12.23
2023-01-26T08:39:57.807Z,11.60
2023-01-26T08:42:25.284Z,11.07
2023-01-26T08:44:52.491Z,10.97
2023-01-26T08:47:19.157Z,11.17
2023-01-26T08:49:45.786Z,10.73
2023-01-26T08:52:12.401Z,10.73
2023-01-26T08:54:39.014Z,10.73
2023-01-26T08:57:06.182Z,8.83
2023-01-26T08:59:32.749Z,8.73
2023-01-26T09:01:59.388Z,11.03
2023-01-26T09:04:27.386Z,9.53
2023-01-26T09:06:54.187Z,8.53
2023-01-26T09:09:20.803Z,9.40
2023-01-26T09:11:47.487Z,10.07
2023-01-26T09:14:14.086Z,12.67
2023-01-26T09:16:40.720Z,11.90
2023-01-26T09:19:07.440Z,10.90
2023-01-26T09:21:34.068Z,9.83
2023-01-26T09:24:00.788Z,10.87
2023-01-26T09:26:28.753Z,10.37
2023-01-26T09:28:55.356Z,9.67
2023-01-26T09:31:22.220Z,7.60
2023-01-26T09:33:49.975Z,9.00
2023-01-26T09:36:16.808Z,10.20
2023-01-26T09:38:43.408Z,9.37
2023-01-26T09:41:37.739Z,11.37
2023-01-26T09:44:11.725Z,10.50
2023-01-26T09:47:12.257Z,10.23
2023-01-26T09:49:50.321Z,9.47
2023-01-26T09:52:32.958Z,11.83
2023-01-26T09:55:03.513Z,12.83
2023-01-26T09:57:40.757Z,10.90
2023-01-26T10:00:25.068Z,12.20
2023-01-26T10:03:33.186Z,9.90
2023-01-26T10:06:15.086Z,10.17
2023-01-26T10:08:45.161Z,9.97
2023-01-26T10:11:24.728Z,9.43
2023-01-26T10:13:57.284Z,8.33
2023-01-26T10:16:25.235Z,9.13
2023-01-26T10:18:59.294Z,8.80
2023-01-26T10:21:30.973Z,11.97
2023-01-26T10:24:00.884Z,10.57
2023-01-26T10:26:31.561Z,12.13
2023-01-26T10:28:58.513Z,10.70
2023-01-26T10:31:28.414Z,13.60
2023-01-26T10:34:10.368Z,13.47
2023-01-26T10:36:36.937Z,11.80
2023-01-26T10:39:10.491Z,10.20
2023-01-26T10:41:37.859Z,12.97
2023-01-26T10:44:10.356Z,13.43
2023-01-26T10:46:40.297Z,10.20
2023-01-26T10:49:09.662Z,10.43
2023-01-26T10:51:38.735Z,10.43
2023-01-26T10:54:23.172Z,11.73
2023-01-26T10:57:22.536Z,11.77
2023-01-26T10:59:58.836Z,12.40
2023-01-26T11:02:29.332Z,12.30
2023-01-26T11:05:07.097Z,13.33
2023-01-26T11:07:35.162Z,12.90
2023-01-26T11:10:17.156Z,13.77
2023-01-26T11:12:44.057Z,13.87
2023-01-26T11:15:24.897Z,12.83
2023-01-26T11:18:05.161Z,12.13
2023-01-26T11:20:48.473Z,9.03
2023-01-26T11:23:40.800Z,10.07
2023-01-26T11:26:32.969Z,10.53
2023-01-26T11:29:37.356Z,11.67
2023-01-26T11:32:34.180Z,9.67
2023-01-26T11:35:34.016Z,10.43
2023-01-26T11:38:20.648Z,8.90
2023-01-26T11:40:56.530Z,10.10
2023-01-26T11:43:46.409Z,10.07
2023-01-26T11:46:40.429Z,9.07
2023-01-26T11:49:36.872Z,9.37
2023-01-26T11:52:41.630Z,12.97
2023-01-26T11:55:37.051Z,9.13
2023-01-26T11:58:18.184Z,7.87
2023-01-26T12:00:51.850Z,8.17
2023-01-26T12:03:41.203Z,10.10
2023-01-26T12:06:15.437Z,8.83
2023-01-26T12:08:52.267Z,8.90
2023-01-26T12:11:35.380Z,9.90
2023-01-26T12:14:18.362Z,9.70
2023-01-26T12:16:50.374Z,7.90
2023-01-26T12:19:34.287Z,8.83
2023-01-26T12:22:08.647Z,6.77
2023-01-26T12:25:17.946Z,9.00
2023-01-26T12:27:44.065Z,7.10
2023-01-26T12:30:26.533Z,6.57
2023-01-26T12:32:53.375Z,7.80
2023-01-26T12:35:35.363Z,6.30
2023-01-26T12:38:18.301Z,6.07
2023-01-26T12:40:58.305Z,7.67
2023-01-26T12:44:03.549Z,6.67
2023-01-26T12:46:36.647Z,6.00
2023-01-26T12:49:21.522Z,7.83
2023-01-26T12:51:54.840Z,6.47
2023-01-26T12:54:33.593Z,6.40
2023-01-26T12:57:02.703Z,8.13
2023-01-26T12:59:46.253Z,8.20
2023-01-26T13:02:48.989Z,8.43
2023-01-26T13:05:32.063Z,7.80
2023-01-26T13:07:59.166Z,7.00
2023-01-26T13:10:42.900Z,7.40
2023-01-26T13:13:18.614Z,7.40
2023-01-26T13:15:45.344Z,8.20
2023-01-26T13:18:17.222Z,11.07
2023-01-26T13:20:49.094Z,7.63
2023-01-26T13:23:42.590Z,9.60
2023-01-26T13:26:33.787Z,8.33
2023-01-26T13:29:25.461Z,10.13
2023-01-26T13:31:56.091Z,11.23
2023-01-26T13:34:33.705Z,7.17
2023-01-26T13:37:09.941Z,8.00
2023-01-26T13:39:39.278Z,10.23
2023-01-26T13:42:20.232Z,8.53
2023-01-26T13:44:54.173Z,9.23
2023-01-26T13:47:35.968Z,7.63
2023-01-26T13:50:20.835Z,8.20
2023-01-26T13:52:47.409Z,9.67
2023-01-26T13:55:25.200Z,11.23
2023-01-26T13:58:12.945Z,10.03
2023-01-26T14:00:39.805Z,9.07
2023-01-26T14:03:18.581Z,8.47
2023-01-26T14:05:56.081Z,8.80
2023-01-26T14:08:23.451Z,7.00
2023-01-26T14:10:50.950Z,9.00
2023-01-26T14:13:44.812Z,8.70
2023-01-26T14:16:24.611Z,10.53
2023-01-26T14:19:03.030Z,9.43
2023-01-26T14:21:29.666Z,9.67
2023-01-26T14:23:56.651Z,9.33
2023-01-26T14:26:31.739Z,10.10
2023-01-26T14:29:00.508Z,9.57
2023-01-26T14:31:28.835Z,10.57
2023-01-26T14:33:58.614Z,12.20
2023-01-26T14:36:27.527Z,14.13
2023-01-26T14:38:56.014Z,12.80
2023-01-26T14:41:26.851Z,12.43
2023-01-26T14:43:58.607Z,13.20
2023-01-26T14:46:40.137Z,13.67
2023-01-26T14:49:14.752Z,14.10
2023-01-26T14:51:45.243Z,15.13
2023-01-26T14:54:25.861Z,13.97
2023-01-26T14:56:52.755Z,12.50
2023-01-26T14:59:40.516Z,12.73
2023-01-26T15:02:16.322Z,14.57
2023-01-26T15:04:58.024Z,13.07
2023-01-26T15:07:41.390Z,12.67
2023-01-26T15:10:37.063Z,15.57
2023-01-26T15:13:15.934Z,16.93
2023-01-26T15:15:50.736Z,14.07
2023-01-26T15:18:20.328Z,16.47
2023-01-26T15:21:00.569Z,17.83
2023-01-26T15:23:30.755Z,16.30
2023-01-26T15:26:07.940Z,16.13
2023-01-26T15:28:35.231Z,14.00
2023-01-26T15:31:02.602Z,17.43
2023-01-26T15:33:47.744Z,14.70
2023-01-26T15:36:43.311Z,14.90
2023-01-26T15:39:15.258Z,15.23
2023-01-26T15:41:42.995Z,13.97
2023-01-26T15:44:20.059Z,16.00
2023-01-26T15:46:46.954Z,16.07
2023-01-26T15:49:14.392Z,14.03
2023-01-26T15:51:40.995Z,15.67
2023-01-26T15:54:11.013Z,16.13
2023-01-26T15:56:37.611Z,16.93
2023-01-26T15:59:04.160Z,14.77
2023-01-26T16:01:30.747Z,15.17
2023-01-26T16:03:57.317Z,15.00
2023-01-26T16:06:26.743Z,15.67
2023-01-26T16:08:54.680Z,15.83
2023-01-26T16:11:23.360Z,19.93
2023-01-26T16:14:02.277Z,13.63
2023-01-26T16:16:29.524Z,14.40
2023-01-26T16:18:56.760Z,14.07
2023-01-26T16:21:25.913Z,15.83
2023-01-26T16:23:52.503Z,12.57
2023-01-26T16:26:19.713Z,13.23
2023-01-26T16:28:47.033Z,13.93
2023-01-26T16:31:23.782Z,11.60
2023-01-26T16:33:50.975Z,13.00
2023-01-26T16:36:19.298Z,12.07
2023-01-26T16:38:46.691Z,12.40
2023-01-26T16:41:20.402Z,12.13
2023-01-26T16:43:46.968Z,10.73
2023-01-26T16:46:13.577Z,12.90
2023-01-26T16:48:41.133Z,15.30
2023-01-26T16:51:20.062Z,13.97
2023-01-26T16:53:47.617Z,13.90
2023-01-26T16:56:15.954Z,15.23
2023-01-26T16:58:42.511Z,15.80
2023-01-26T17:01:24.595Z,14.33
2023-01-26T17:03:51.707Z,16.93
2023-01-26T17:06:19.191Z,16.63
2023-01-26T17:08:46.399Z,17.37
2023-01-26T17:11:22.002Z,14.20
2023-01-26T17:13:49.001Z,15.23
2023-01-26T17:16:18.126Z,16.93
2023-01-26T17:18:45.641Z,14.40
2023-01-26T17:21:13.671Z,13.10
2023-01-26T17:23:44.296Z,15.70
2023-01-26T17:26:13.428Z,16.63
2023-01-26T17:28:40.176Z,15.57
2023-01-26T17:31:11.864Z,12.30
2023-01-26T17:33:38.490Z,15.07
2023-01-26T17:36:06.557Z,15.17
2023-01-26T17:38:33.528Z,14.80
2023-01-26T17:41:00.464Z,15.23
2023-01-26T17:43:27.625Z,15.10
2023-01-26T17:46:12.328Z,13.87
2023-01-26T17:48:39.864Z,15.30
2023-01-26T17:51:08.955Z,16.57
2023-01-26T17:53:40.403Z,14.80
2023-01-26T17:56:13.041Z,16.57
2023-01-26T17:58:40.130Z,13.63
2023-01-26T18:01:08.892Z,13.30
2023-01-26T18:03:39.479Z,15.17
2023-01-26T18:06:06.309Z,14.40
2023-01-26T18:08:32.841Z,18.00
2023-01-26T18:11:01.349Z,16.37
2023-01-26T18:13:29.325Z,16.10
2023-01-26T18:15:55.953Z,19.53
2023-01-26T18:18:23.937Z,14.90
2023-01-26T18:20:51.271Z,15.17
2023-01-26T18:23:19.055Z,15.20
2023-01-26T18:25:46.128Z,17.43
2023-01-26T18:28:13.548Z,17.63
2023-01-26T18:30:43.578Z,16.77
2023-01-26T18:33:10.315Z,18.50
2023-01-26T18:35:36.977Z,17.57
2023-01-26T18:38:03.758Z,17.57
2023-01-26T18:40:31.005Z,15.37
2023-01-26T18:42:57.994Z,15.10
2023-01-26T18:45:24.808Z,19.17
2023-01-26T18:47:51.446Z,17.47
2023-01-26T18:50:18.401Z,16.17
2023-01-26T18:52:44.978Z,17.27
2023-01-26T18:55:11.990Z,20.03
2023-01-26T18:57:38.867Z,18.43
2023-01-26T19:00:08.115Z,18.10
2023-01-26T19:02:38.135Z,20.00
2023-01-26T19:05:08.403Z,18.07
2023-01-26T19:07:35.300Z,16.47
2023-01-26T19:10:04.652Z,16.80
2023-01-26T19:12:31.534Z,18.13
2023-01-26T19:14:58.214Z,17.63
2023-01-26T19:17:24.835Z,16.93
2023-01-26T19:19:51.562Z,18.23
2023-01-26T19:22:18.476Z,18.23
2023-01-26T19:24:45.319Z,18.80
2023-01-26T19:27:12.029Z,20.57
2023-01-26T19:29:38.626Z,18.47
2023-01-26T19:32:05.821Z,20.13
2023-01-26T19:34:33.714Z,20.23
2023-01-26T19:37:00.425Z,19.90
2023-01-26T19:39:26.995Z,18.13
2023-01-26T19:41:53.743Z,19.37
2023-01-26T19:44:20.316Z,19.73
2023-01-26T19:46:50.754Z,19.07
2023-01-26T19:49:17.489Z,19.87
2023-01-26T19:51:44.180Z,19.57
2023-01-26T19:54:11.031Z,19.50
2023-01-26T19:56:37.900Z,21.07
2023-01-26T19:59:06.707Z,20.43
2023-01-26T20:01:34.055Z,21.43
2023-01-26T20:04:04.034Z,19.17
2023-01-26T20:06:32.588Z,20.27
2023-01-26T20:08:59.711Z,19.87
2023-01-26T20:11:29.387Z,17.13
2023-01-26T20:14:00.555Z,22.73
2023-01-26T20:16:28.272Z,21.27
2023-01-26T20:18:56.130Z,21.83
2023-01-26T20:21:23.638Z,23.17
2023-01-26T20:23:54.950Z,23.60
2023-01-26T20:26:22.897Z,21.33
2023-01-26T20:28:49.526Z,19.53
2023-01-26T20:31:21.590Z,19.43
2023-01-26T20:33:49.790Z,19.57
2023-01-26T20:36:19.377Z,20.57
2023-01-26T20:38:47.959Z,22.27
2023-01-26T20:41:17.885Z,21.57
2023-01-26T20:43:58.673Z,18.30
2023-01-26T20:46:29.344Z,17.13
2023-01-26T20:48:56.778Z,19.37
2023-01-26T20:51:30.232Z,20.47
2023-01-26T20:53:57.692Z,14.80
2023-01-26T20:56:24.407Z,19.30
2023-01-26T20:58:54.902Z,22.07
2023-01-26T21:01:23.351Z,19.03
2023-01-26T21:03:50.293Z,19.53
2023-01-26T21:06:19.019Z,18.50
2023-01-26T21:08:47.495Z,19.03
2023-01-26T21:11:16.795Z,17.67
2023-01-26T21:13:44.380Z,17.33
2023-01-26T21:16:13.910Z,17.53
2023-01-26T21:18:40.726Z,19.83
2023-01-26T21:21:10.237Z,17.53
2023-01-26T21:23:36.869Z,17.17
2023-01-26T21:26:06.283Z,18.70
2023-01-26T21:28:33.225Z,16.83
2023-01-26T21:31:08.398Z,16.60
2023-01-26T21:33:38.763Z,17.27
2023-01-26T21:36:07.270Z,19.20
2023-01-26T21:38:37.763Z,17.87
2023-01-26T21:41:31.414Z,18.17
2023-01-26T21:44:03.328Z,15.97
2023-01-26T21:46:30.503Z,16.93
2023-01-26T21:48:57.392Z,16.83
2023-01-26T21:51:44.349Z,18.53
2023-01-26T21:54:12.575Z,16.70
2023-01-26T21:56:39.682Z,16.90
2023-01-26T21:59:10.559Z,17.43
2023-01-26T22:01:40.574Z,16.83
2023-01-26T22:04:09.519Z,15.30
2023-01-26T22:06:37.159Z,15.20
2023-01-26T22:09:10.751Z,16.80
2023-01-26T22:11:38.191Z,14.40
2023-01-26T22:14:05.451Z,15.43
2023-01-26T22:16:32.264Z,14.93
2023-01-26T22:18:59.185Z,17.17
2023-01-26T22:21:26.412Z,16.37
2023-01-26T22:23:54.165Z,15.60
2023-01-26T22:26:22.809Z,17.30
2023-01-26T22:28:51.326Z,16.70
2023-01-26T22:31:19.803Z,18.17
2023-01-26T22:33:47.374Z,17.70
2023-01-26T22:36:14.047Z,19.87
2023-01-26T22:38:41.412Z,18.77
2023-01-26T22:41:08.326Z,20.37
2023-01-26T22:43:34.889Z,17.10
2023-01-26T22:46:07.211Z,19.80
2023-01-26T22:48:34.370Z,21.17
2023-01-26T22:51:18.300Z,18.00
2023-01-26T22:53:45.436Z,19.50
2023-01-26T22:56:12.366Z,19.40
2023-01-26T22:58:56.709Z,18.90
2023-01-26T23:01:25.649Z,17.07
2023-01-26T23:03:54.201Z,21.47
2023-01-26T23:06:21.520Z,20.67
2023-01-26T23:08:48.332Z,21.10
2023-01-26T23:11:23.470Z,19.53
2023-01-26T23:13:51.353Z,17.40
2023-01-26T23:16:18.444Z,19.63
2023-01-26T23:18:45.331Z,16.73
2023-01-26T23:21:12.602Z,16.00
2023-01-26T23:23:40.899Z,18.00
2023-01-26T23:26:08.835Z,20.23
2023-01-26T23:28:38.739Z,15.83
2023-01-26T23:31:06.365Z,16.43
2023-01-26T23:33:35.027Z,18.37
2023-01-26T23:36:02.474Z,16.03
2023-01-26T23:38:29.580Z,16.00
2023-01-26T23:40:56.542Z,16.30
2023-01-26T23:43:23.922Z,15.67
2023-01-26T23:45:51.073Z,14.47
2023-01-26T23:48:18.588Z,15.37
2023-01-26T23:50:45.610Z,12.73
2023-01-26T23:53:12.739Z,16.13
2023-01-26T23:55:43.571Z,18.40
2023-01-26T23:58:11.982Z,14.60
